Time;durP1;ratioP1;P1;durP2;ratioP2;P2;SDS_P1;SDS_P2;PMS_P1;PMS_P2;Temp;Humidity;BMP_temperature;BMP_pressure;BME280_temperature;BME280_humidity;BME280_pressure;Samples;Min_cycle;Max_cycle;Signal;HPM_P1;HPM_P2
2023/10/26 00:00:53;;;;;;;37.95;8.13;;;;;;;16.49;99.71;94197.84;5104777;28;20250;-68
2023/10/26 00:03:19;;;;;;;31.15;7.75;;;;;;;16.66;98.39;94193.19;5105869;28;20262;-69
2023/10/26 00:05:46;;;;;;;34.22;8.15;;;;;;;16.53;98.96;94210.38;5106287;28;20713;-68
2023/10/26 00:08:14;;;;;;;26.85;6.78;;;;;;;16.51;98.30;94201.13;5102394;28;20216;-64
2023/10/26 00:10:40;;;;;;;29.70;8.73;;;;;;;16.48;98.97;94209.03;5105066;28;22203;-67
2023/10/26 00:13:07;;;;;;;23.83;6.72;;;;;;;16.23;98.87;94192.81;5102300;28;20622;-65
2023/10/26 00:15:35;;;;;;;25.42;6.93;;;;;;;16.30;99.30;94194.03;5105510;28;20207;-68
2023/10/26 00:18:02;;;;;;;19.83;7.25;;;;;;;16.32;99.62;94202.44;5104845;28;20245;-67
2023/10/26 00:20:29;;;;;;;17.23;6.18;;;;;;;16.34;99.29;94205.69;5105707;28;20204;-67
2023/10/26 00:22:55;;;;;;;27.40;7.28;;;;;;;16.29;99.65;94189.81;5100674;28;20236;-68
2023/10/26 00:25:22;;;;;;;28.02;7.22;;;;;;;16.36;99.53;94186.81;5101385;28;20254;-64
2023/10/26 00:27:49;;;;;;;29.13;6.53;;;;;;;16.23;100.00;94179.16;5103569;28;20213;-67
2023/10/26 00:30:15;;;;;;;26.67;7.28;;;;;;;16.24;100.00;94186.75;5102761;28;20215;-67
2023/10/26 00:32:43;;;;;;;26.38;6.15;;;;;;;16.51;99.82;94201.97;5103833;28;20600;-67
2023/10/26 00:35:10;;;;;;;26.63;6.70;;;;;;;16.40;99.67;94201.06;5102145;28;20632;-67
2023/10/26 00:37:37;;;;;;;22.95;6.53;;;;;;;16.49;99.42;94201.25;5103494;28;20678;-65
2023/10/26 00:40:04;;;;;;;28.75;6.57;;;;;;;16.62;98.89;94196.06;5103830;28;20224;-67
2023/10/26 00:42:30;;;;;;;23.50;7.43;;;;;;;16.54;98.68;94204.31;5104066;28;20284;-68
2023/10/26 00:44:57;;;;;;;32.88;7.40;;;;;;;16.62;98.41;94206.31;5102198;28;20747;-67
2023/10/26 00:47:25;;;;;;;30.83;6.80;;;;;;;16.58;98.21;94210.84;5101394;28;20197;-69
2023/10/26 00:49:54;;;;;;;22.80;6.13;;;;;;;16.62;98.84;94198.63;5103335;28;20193;-65
2023/10/26 00:52:21;;;;;;;25.38;6.05;;;;;;;16.58;98.79;94208.28;5102685;28;20251;-70
2023/10/26 00:54:48;;;;;;;26.52;6.18;;;;;;;16.53;98.85;94205.25;5104369;28;20205;-67
2023/10/26 00:57:17;;;;;;;26.38;6.70;;;;;;;16.36;99.42;94209.88;5101557;28;20213;-67
2023/10/26 00:59:45;;;;;;;30.67;6.88;;;;;;;16.38;99.75;94188.34;5102576;28;20231;-66
2023/10/26 01:02:14;;;;;;;29.70;6.70;;;;;;;16.36;99.57;94194.50;5102967;28;20207;-66
2023/10/26 01:04:40;;;;;;;25.42;6.57;;;;;;;16.22;100.00;94195.47;5101382;28;20290;-64
2023/10/26 01:07:08;;;;;;;21.15;6.18;;;;;;;16.29;99.97;94182.13;5103494;28;20285;-66
2023/10/26 01:09:35;;;;;;;27.95;6.25;;;;;;;16.42;98.73;94173.56;5102515;28;20254;-67
2023/10/26 01:12:01;;;;;;;24.83;5.60;;;;;;;16.35;99.34;94186.00;5102473;28;20197;-66
2023/10/26 01:14:28;;;;;;;21.90;5.85;;;;;;;16.23;99.06;94181.72;5101881;28;20266;-65
2023/10/26 01:16:55;;;;;;;25.35;5.82;;;;;;;16.21;99.69;94179.28;5103430;28;20197;-66
2023/10/26 01:19:22;;;;;;;21.73;6.30;;;;;;;16.20;99.30;94184.50;5102483;28;20250;-66
2023/10/26 01:21:50;;;;;;;27.40;6.45;;;;;;;16.15;99.36;94150.69;5103667;28;20233;-67
2023/10/26 01:24:17;;;;;;;22.00;5.78;;;;;;;16.11;99.64;94182.56;5103919;28;20193;-67
2023/10/26 01:26:44;;;;;;;19.55;5.22;;;;;;;16.14;100.00;94182.34;5101461;28;21048;-67
2023/10/26 01:29:11;;;;;;;19.00;6.00;;;;;;;16.06;100.00;94180.34;5104398;28;20246;-67
2023/10/26 01:31:37;;;;;;;19.90;6.38;;;;;;;16.15;100.00;94184.81;5102953;28;20227;-62
2023/10/26 01:34:04;;;;;;;19.75;6.15;;;;;;;16.13;100.00;94186.66;5101447;28;20682;-66
2023/10/26 01:36:32;;;;;;;20.35;6.07;;;;;;;16.04;100.00;94184.75;5102759;28;20201;-66
2023/10/26 01:39:00;;;;;;;21.48;5.85;;;;;;;16.05;100.00;94183.00;5101229;28;20221;-63
2023/10/26 01:41:30;;;;;;;19.90;5.68;;;;;;;15.85;100.00;94181.78;5104391;28;20225;-65
2023/10/26 01:43:57;;;;;;;19.77;6.05;;;;;;;15.90;100.00;94179.72;5101386;28;20225;-67
2023/10/26 01:46:24;;;;;;;18.65;5.50;;;;;;;15.92;100.00;94177.88;5102358;28;20285;-67
2023/10/26 01:48:50;;;;;;;27.23;6.05;;;;;;;16.02;100.00;94170.41;5104359;28;20246;-67
2023/10/26 01:51:17;;;;;;;20.63;6.72;;;;;;;16.07;100.00;94171.72;5104095;28;20197;-66
2023/10/26 01:53:44;;;;;;;22.15;5.93;;;;;;;15.99;100.00;94189.38;5101075;28;20269;-65
2023/10/26 01:56:12;;;;;;;25.75;6.15;;;;;;;15.97;100.00;94175.84;5103481;28;20804;-67
2023/10/26 01:58:39;;;;;;;24.10;6.10;;;;;;;15.96;100.00;94179.31;5102802;28;20301;-66
2023/10/26 02:01:05;;;;;;;28.05;6.25;;;;;;;15.90;100.00;94182.28;5102451;28;20193;-66
2023/10/26 02:03:32;;;;;;;25.17;5.63;;;;;;;15.84;100.00;94180.97;5101422;28;20747;-68
2023/10/26 02:05:59;;;;;;;20.67;5.63;;;;;;;15.82;100.00;94179.47;5103157;28;20710;-65
2023/10/26 02:08:25;;;;;;;21.70;7.57;;;;;;;15.75;100.00;94180.78;5103432;28;20746;-67
2023/10/26 02:10:52;;;;;;;26.58;6.38;;;;;;;15.96;100.00;94176.75;5104017;28;20205;-66
2023/10/26 02:13:20;;;;;;;13.43;5.85;;;;;;;15.97;100.00;94181.78;5101767;28;20257;-67
2023/10/26 02:15:47;;;;;;;20.50;6.55;;;;;;;15.87;100.00;94179.94;5103331;28;20299;-67
2023/10/26 02:18:13;;;;;;;20.05;5.60;;;;;;;16.00;99.70;94175.63;5103211;28;20651;-67
2023/10/26 02:20:40;;;;;;;27.63;6.15;;;;;;;16.04;98.46;94171.13;5101949;28;20791;-67
2023/10/26 02:23:07;;;;;;;29.50;6.80;;;;;;;16.21;98.01;94178.44;5101520;28;20266;-66
2023/10/26 02:25:33;;;;;;;16.52;5.22;;;;;;;16.28;97.28;94182.25;5102915;28;20286;-68
2023/10/26 02:28:00;;;;;;;17.60;6.22;;;;;;;16.11;98.09;94173.13;5101303;28;20243;-67
2023/10/26 02:30:28;;;;;;;19.10;6.95;;;;;;;16.17;98.05;94177.84;5104334;28;20197;-65
2023/10/26 02:32:55;;;;;;;20.42;4.75;;;;;;;16.01;98.15;94172.16;5106087;28;20228;-68
2023/10/26 02:35:21;;;;;;;21.75;6.00;;;;;;;15.77;99.38;94173.81;5103877;28;20224;-67
2023/10/26 02:37:48;;;;;;;18.33;5.30;;;;;;;15.89;99.20;94157.59;5107371;28;20217;-68
2023/10/26 02:40:15;;;;;;;24.60;5.55;;;;;;;15.64;100.00;94161.00;5103070;28;20253;-66
2023/10/26 02:42:42;;;;;;;11.57;5.20;;;;;;;15.64;100.00;94164.38;5101728;28;20239;-67
2023/10/26 02:45:09;;;;;;;19.23;5.65;;;;;;;15.85;99.13;94158.72;5105827;28;20252;-65
2023/10/26 02:47:38;;;;;;;18.55;4.97;;;;;;;15.99;98.73;94161.19;5103791;28;20198;-67
2023/10/26 02:50:05;;;;;;;15.80;4.90;;;;;;;15.90;97.81;94164.38;5103229;28;20246;-65
2023/10/26 02:52:32;;;;;;;14.20;4.43;;;;;;;15.96;96.98;94153.69;5106615;28;20232;-66
2023/10/26 02:54:59;;;;;;;17.80;4.55;;;;;;;15.86;97.85;94179.13;5105289;28;20205;-68
2023/10/26 02:57:25;;;;;;;21.42;4.40;;;;;;;15.92;97.46;94165.06;5103766;28;20204;-66
2023/10/26 02:59:52;;;;;;;16.38;5.18;;;;;;;15.80;98.45;94178.75;5105384;28;20222;-63
2023/10/26 03:02:19;;;;;;;16.63;5.60;;;;;;;15.72;98.58;94175.88;5106722;28;20232;-67
2023/10/26 03:04:47;;;;;;;23.67;4.75;;;;;;;15.70;99.16;94182.84;5101887;28;20247;-68
2023/10/26 03:07:20;;;;;;;20.33;4.75;;;;;;;15.67;99.74;94183.03;5104813;27;20261;-66
2023/10/26 03:09:47;;;;;;;9.52;3.97;;;;;;;15.84;98.04;94175.03;5105553;28;20189;-68
2023/10/26 03:12:14;;;;;;;17.48;4.80;;;;;;;15.74;98.10;94186.84;5105094;28;20298;-68
2023/10/26 03:14:40;;;;;;;9.68;4.07;;;;;;;15.62;98.59;94173.09;5104472;28;20208;-64
2023/10/26 03:17:07;;;;;;;12.18;4.30;;;;;;;15.71;99.17;94169.09;5105640;28;20216;-61
2023/10/26 03:19:34;;;;;;;14.05;4.57;;;;;;;15.71;98.54;94177.59;5105596;28;20313;-67
2023/10/26 03:22:01;;;;;;;15.80;5.07;;;;;;;15.64;99.45;94174.63;5105053;28;20258;-66
2023/10/26 03:24:28;;;;;;;18.30;5.68;;;;;;;15.76;97.56;94169.63;5103974;28;20209;-67
2023/10/26 03:26:55;;;;;;;10.15;5.07;;;;;;;15.64;98.81;94168.69;5105618;28;20201;-67
2023/10/26 03:29:22;;;;;;;17.63;5.07;;;;;;;15.59;99.10;94181.00;5101758;28;20246;-67
2023/10/26 03:31:48;;;;;;;13.50;4.68;;;;;;;15.58;99.02;94174.25;5104815;28;20380;-70
2023/10/26 03:34:15;;;;;;;20.58;5.60;;;;;;;15.69;98.50;94160.69;5102817;28;20920;-67
2023/10/26 03:36:42;;;;;;;18.15;4.60;;;;;;;15.44;99.43;94164.88;5103143;28;20258;-68
2023/10/26 03:39:10;;;;;;;19.95;4.55;;;;;;;15.46;99.78;94165.59;5105312;28;20221;-63
2023/10/26 03:41:36;;;;;;;18.33;5.05;;;;;;;15.37;99.96;94163.63;5105192;28;20197;-69
2023/10/26 03:44:03;;;;;;;10.30;4.35;;;;;;;15.50;99.75;94161.09;5103480;28;20229;-68
2023/10/26 03:46:30;;;;;;;14.85;4.13;;;;;;;15.50;99.27;94163.66;5104484;28;21749;-67
2023/10/26 03:48:57;;;;;;;17.17;4.90;;;;;;;15.52;99.44;94146.44;5106599;28;20229;-66
2023/10/26 03:51:23;;;;;;;16.73;4.95;;;;;;;15.51;99.77;94152.50;5103567;28;20300;-62
2023/10/26 03:53:50;;;;;;;13.40;4.95;;;;;;;15.47;99.33;94146.75;5104104;28;20233;-68
2023/10/26 03:56:18;;;;;;;25.05;11.43;;;;;;;15.51;99.64;94137.94;5105391;28;20220;-67
2023/10/26 03:58:44;;;;;;;31.60;13.95;;;;;;;15.45;99.40;94133.25;5106115;28;20196;-66
2023/10/26 04:01:11;;;;;;;23.52;8.75;;;;;;;15.49;99.34;94129.56;5103320;28;20221;-68
2023/10/26 04:03:38;;;;;;;25.27;9.02;;;;;;;15.52;99.21;94134.47;5105501;28;20201;-68
2023/10/26 04:06:05;;;;;;;24.73;8.48;;;;;;;15.57;98.35;94127.34;5103969;28;20201;-67
2023/10/26 04:08:32;;;;;;;16.30;8.15;;;;;;;15.58;97.32;94126.41;5105080;28;20721;-68
2023/10/26 04:10:58;;;;;;;20.10;7.97;;;;;;;15.35;98.94;94127.09;5103592;28;20201;-68
2023/10/26 04:13:30;;;;;;;24.10;7.70;;;;;;;15.43;98.85;94129.97;5102410;28;20220;-67
2023/10/26 04:16:00;;;;;;;22.70;8.27;;;;;;;15.62;98.13;94130.38;5103355;28;20246;-69
2023/10/26 04:18:26;;;;;;;33.47;17.80;;;;;;;15.48;97.86;94139.91;5106666;28;20201;-68
2023/10/26 04:20:53;;;;;;;18.92;7.68;;;;;;;15.63;97.36;94137.13;5104182;28;20691;-67
2023/10/26 04:23:20;;;;;;;19.30;7.35;;;;;;;15.36;98.12;94141.53;5103173;28;20694;-66
2023/10/26 04:25:48;;;;;;;13.02;7.28;;;;;;;15.24;99.76;94144.91;5102630;28;20276;-67
2023/10/26 04:28:15;;;;;;;23.88;9.02;;;;;;;15.17;100.00;94149.59;5103264;28;20193;-66
2023/10/26 04:30:44;;;;;;;19.63;8.38;;;;;;;15.21;100.00;94155.34;5104015;28;20250;-67
2023/10/26 04:33:10;;;;;;;22.30;8.95;;;;;;;15.23;99.86;94143.28;5105933;28;20228;-68
2023/10/26 04:35:41;;;;;;;49.15;19.25;;;;;;;15.29;99.69;94123.22;5105038;28;20225;-63
2023/10/26 04:38:09;;;;;;;11.88;7.85;;;;;;;15.29;99.69;94123.22;5104142;28;20576;-67
2023/10/26 04:40:36;;;;;;;15.18;6.13;;;;;;;15.49;97.85;94142.34;5102574;28;20208;-69
2023/10/26 04:43:03;;;;;;;13.65;5.75;;;;;;;15.55;98.24;94149.63;5103718;28;20193;-69
2023/10/26 04:45:30;;;;;;;25.60;10.57;;;;;;;15.46;98.72;94147.69;5102435;28;20221;-64
2023/10/26 04:47:58;;;;;;;19.70;9.77;;;;;;;15.64;98.33;94155.88;5101694;28;20254;-67
2023/10/26 04:50:25;;;;;;;16.85;5.40;;;;;;;15.61;97.35;94154.34;5101287;28;20699;-67
2023/10/26 04:52:52;;;;;;;11.32;4.57;;;;;;;15.62;97.87;94156.00;5103083;28;20229;-69
2023/10/26 04:55:19;;;;;;;23.13;4.95;;;;;;;15.71;97.09;94151.19;5104612;28;20193;-67
2023/10/26 04:57:45;;;;;;;12.63;5.07;;;;;;;15.70;96.87;94152.91;5102751;28;20242;-68
2023/10/26 05:00:13;;;;;;;9.38;4.55;;;;;;;15.60;97.51;94146.75;5103283;28;20223;-68
2023/10/26 05:02:41;;;;;;;14.27;5.05;;;;;;;15.39;98.51;94146.44;5103868;28;20701;-68
2023/10/26 05:05:09;;;;;;;13.63;5.13;;;;;;;15.60;98.13;94147.59;5100982;28;20736;-63
2023/10/26 05:07:36;;;;;;;15.30;5.25;;;;;;;15.52;98.47;94156.69;5101588;28;20231;-68
2023/10/26 05:10:03;;;;;;;12.48;5.53;;;;;;;15.61;97.45;94148.41;5104731;28;20254;-66
2023/10/26 05:12:30;;;;;;;19.33;5.65;;;;;;;15.84;96.34;94139.16;5102191;28;20280;-67
2023/10/26 05:14:56;;;;;;;14.18;5.53;;;;;;;15.86;96.07;94148.38;5103566;28;20197;-68
2023/10/26 05:17:23;;;;;;;14.20;5.60;;;;;;;15.95;95.66;94157.19;5103530;28;20250;-64
2023/10/26 05:19:50;;;;;;;14.70;5.05;;;;;;;15.76;96.25;94157.63;5104062;28;20224;-68
2023/10/26 05:22:19;;;;;;;24.73;5.38;;;;;;;15.80;97.44;94178.75;5103303;28;20262;-66
2023/10/26 05:24:46;;;;;;;16.10;5.53;;;;;;;15.60;97.91;94178.31;5103306;28;20193;-66
2023/10/26 05:27:12;;;;;;;17.08;6.13;;;;;;;15.72;98.07;94188.69;5101259;28;20215;-66
2023/10/26 05:29:39;;;;;;;15.73;7.10;;;;;;;15.80;97.56;94184.69;5104466;28;20192;-63
2023/10/26 05:32:06;;;;;;;18.92;7.53;;;;;;;15.94;97.44;94181.16;5103395;28;20717;-66
2023/10/26 05:34:32;;;;;;;18.92;7.38;;;;;;;16.07;96.04;94181.97;5101686;28;20697;-68
2023/10/26 05:36:59;;;;;;;27.00;8.88;;;;;;;16.26;95.67;94184.09;5101333;28;20208;-69
2023/10/26 05:39:27;;;;;;;26.27;8.82;;;;;;;16.69;94.10;94189.59;5103612;28;20205;-69
2023/10/26 05:41:54;;;;;;;16.13;7.00;;;;;;;17.47;89.74;94192.44;5103678;28;20309;-69
2023/10/26 05:44:20;;;;;;;15.45;6.53;;;;;;;18.04;86.09;94185.66;5103551;28;20534;-65
2023/10/26 05:46:47;;;;;;;21.90;7.05;;;;;;;18.63;83.18;94191.31;5101241;28;20197;-67
2023/10/26 05:49:14;;;;;;;18.55;8.18;;;;;;;18.94;81.92;94200.81;5104625;28;20690;-68
2023/10/26 05:51:40;;;;;;;25.80;8.20;;;;;;;18.93;81.68;94196.59;5104387;28;20200;-67
2023/10/26 05:54:07;;;;;;;21.73;9.10;;;;;;;19.02;81.25;94203.59;5100027;28;20250;-69
2023/10/26 05:56:35;;;;;;;19.77;7.85;;;;;;;19.46;80.34;94221.53;5102229;28;20201;-68
2023/10/26 05:59:02;;;;;;;22.83;8.25;;;;;;;19.53;78.80;94223.53;5101803;28;20335;-65
2023/10/26 06:01:28;;;;;;;17.60;7.88;;;;;;;19.48;79.01;94220.47;5101630;28;20278;-69
2023/10/26 06:03:55;;;;;;;34.50;9.50;;;;;;;19.20;79.30;94229.63;5101371;28;20232;-66
2023/10/26 06:06:22;;;;;;;21.10;6.95;;;;;;;18.86;80.98;94236.63;5105969;28;20213;-68
2023/10/26 06:08:49;;;;;;;28.92;18.27;;;;;;;18.84;81.66;94230.78;5109638;28;20209;-67
2023/10/26 06:11:16;;;;;;;30.52;17.33;;;;;;;18.78;81.71;94233.88;5107183;28;20239;-66
2023/10/26 06:13:44;;;;;;;40.08;19.55;;;;;;;18.78;82.03;94240.78;5108695;28;20582;-67
2023/10/26 06:16:15;;;;;;;43.10;17.08;;;;;;;18.60;82.81;94246.41;5107248;28;20297;-63
2023/10/26 06:18:42;;;;;;;35.97;16.38;;;;;;;18.74;82.19;94237.63;5107164;28;20197;-66
2023/10/26 06:21:08;;;;;;;27.95;15.65;;;;;;;18.64;83.01;94234.13;5106119;28;20301;-64
2023/10/26 06:23:35;;;;;;;50.42;14.60;;;;;;;18.62;82.85;94233.41;5105752;28;20958;-67
2023/10/26 06:26:05;;;;;;;35.05;13.80;;;;;;;18.75;82.59;94228.13;5104862;28;20205;-66
2023/10/26 06:28:31;;;;;;;33.00;12.90;;;;;;;18.66;82.92;94214.22;5105703;28;20244;-68
2023/10/26 06:31:10;;;;;;;22.02;10.00;;;;;;;18.65;83.41;94221.13;5107286;28;20244;-67
2023/10/26 06:33:37;;;;;;;28.75;10.27;;;;;;;18.69;83.02;94219.13;5105758;28;20221;-68
2023/10/26 06:36:04;;;;;;;20.48;9.57;;;;;;;18.81;82.63;94232.78;5106939;28;20278;-66
2023/10/26 06:38:30;;;;;;;26.42;8.13;;;;;;;18.66;82.42;94237.38;5107044;28;20200;-65
2023/10/26 06:40:57;;;;;;;36.03;13.35;;;;;;;18.92;82.76;94241.31;5106257;28;20220;-68
2023/10/26 06:43:24;;;;;;;28.05;11.07;;;;;;;19.59;80.92;94233.31;5106230;28;20254;-68
2023/10/26 06:45:51;;;;;;;25.45;10.65;;;;;;;20.56;76.18;94231.22;5106684;28;20233;-68
2023/10/26 06:48:20;;;;;;;22.52;9.57;;;;;;;21.27;73.56;94234.53;5104927;28;20560;-68
2023/10/26 06:50:47;;;;;;;19.05;6.57;;;;;;;21.81;68.94;94236.50;5103389;28;21124;-68
2023/10/26 06:53:14;;;;;;;23.23;7.28;;;;;;;21.73;68.91;94233.81;5105377;28;20631;-67
2023/10/26 06:55:41;;;;;;;18.15;8.07;;;;;;;21.47;70.04;94235.34;5106637;28;20201;-67
2023/10/26 06:58:07;;;;;;;22.35;8.85;;;;;;;21.37;70.59;94241.31;5104671;28;20205;-71
2023/10/26 07:00:35;;;;;;;23.23;7.88;;;;;;;21.06;71.34;94240.56;5105126;28;20249;-70
2023/10/26 07:03:02;;;;;;;30.27;8.18;;;;;;;20.83;72.44;94235.78;5106224;28;20208;-67
2023/10/26 07:05:30;;;;;;;21.95;8.52;;;;;;;20.43;74.22;94246.16;5105258;28;20771;-68
2023/10/26 07:07:59;;;;;;;20.55;8.23;;;;;;;20.24;75.17;94242.50;5105745;28;20250;-64
2023/10/26 07:10:26;;;;;;;19.85;8.43;;;;;;;20.14;76.05;94248.56;5104206;28;20284;-67
2023/10/26 07:12:52;;;;;;;20.85;8.95;;;;;;;20.31;75.78;94238.44;5106414;28;20201;-68
2023/10/26 07:15:19;;;;;;;24.15;7.95;;;;;;;20.21;75.76;94247.94;5105205;28;20201;-67
2023/10/26 07:17:46;;;;;;;22.33;8.32;;;;;;;20.34;75.63;94252.84;5102900;28;20232;-66
2023/10/26 07:20:13;;;;;;;26.08;12.00;;;;;;;20.31;75.90;94264.25;5104980;28;20253;-68
2023/10/26 07:22:42;;;;;;;32.13;13.60;;;;;;;20.47;75.08;94252.69;5105212;28;20951;-68
2023/10/26 07:25:10;;;;;;;33.40;12.95;;;;;;;20.52;74.36;94255.69;5106107;28;20660;-64
2023/10/26 07:27:38;;;;;;;29.58;12.23;;;;;;;20.42;74.51;94253.06;5104340;28;20638;-67
2023/10/26 07:30:07;;;;;;;18.77;10.00;;;;;;;20.06;75.13;94254.34;5105718;28;20655;-66
2023/10/26 07:32:33;;;;;;;25.33;8.88;;;;;;;19.95;75.54;94236.41;5104575;28;20278;-67
2023/10/26 07:35:01;;;;;;;15.00;8.05;;;;;;;20.01;75.28;94241.06;5107157;28;20713;-67
2023/10/26 07:37:28;;;;;;;28.33;9.90;;;;;;;19.99;76.08;94237.78;5102544;28;20193;-68
2023/10/26 07:39:56;;;;;;;23.50;8.25;;;;;;;20.01;76.05;94230.72;5104649;28;20201;-64
2023/10/26 07:42:23;;;;;;;28.90;9.10;;;;;;;19.92;75.97;94231.50;5106615;28;20662;-67
2023/10/26 07:44:54;;;;;;;32.47;11.52;;;;;;;19.66;77.35;94237.03;5102881;28;20673;-67
2023/10/26 07:47:21;;;;;;;24.95;10.60;;;;;;;19.51;77.57;94220.28;5102524;28;20683;-69
2023/10/26 07:49:48;;;;;;;25.50;9.82;;;;;;;19.52;77.76;94216.75;5104674;28;20233;-69
2023/10/26 07:52:16;;;;;;;22.85;10.43;;;;;;;19.58;77.77;94223.94;5103891;28;20237;-67
2023/10/26 07:54:42;;;;;;;21.80;9.35;;;;;;;19.66;77.79;94220.75;5102627;28;20245;-66
2023/10/26 07:57:10;;;;;;;14.02;6.97;;;;;;;19.72;77.14;94216.88;5105193;28;20224;-65
2023/10/26 07:59:37;;;;;;;19.38;8.40;;;;;;;19.81;76.71;94211.75;5103301;28;20205;-66
2023/10/26 08:02:04;;;;;;;18.48;7.63;;;;;;;19.96;74.59;94201.94;5101999;28;20224;-68
2023/10/26 08:04:32;;;;;;;19.75;7.15;;;;;;;20.22;72.57;94208.28;5105055;28;20312;-68
2023/10/26 08:07:00;;;;;;;12.23;5.20;;;;;;;20.46;69.43;94202.84;5104916;28;20193;-67
2023/10/26 08:09:31;;;;;;;10.35;4.68;;;;;;;20.66;66.97;94208.84;5103548;28;20642;-67
2023/10/26 08:11:58;;;;;;;15.93;4.05;;;;;;;20.87;65.93;94206.16;5104578;28;20280;-69
2023/10/26 08:14:26;;;;;;;10.90;3.67;;;;;;;21.14;64.71;94193.41;5105083;28;20208;-66
2023/10/26 08:16:53;;;;;;;8.88;2.75;;;;;;;21.48;62.96;94193.03;5102784;28;20204;-68
2023/10/26 08:19:20;;;;;;;11.50;3.22;;;;;;;21.81;61.78;94176.19;5102919;28;20197;-67
2023/10/26 08:21:46;;;;;;;13.63;3.83;;;;;;;21.91;61.13;94189.91;5100029;28;20248;-68
2023/10/26 08:24:13;;;;;;;9.63;3.53;;;;;;;21.69;61.42;94180.72;5101700;28;20690;-67
2023/10/26 08:26:40;;;;;;;17.70;3.55;;;;;;;21.32;62.25;94176.28;5102593;28;20645;-68
2023/10/26 08:29:06;;;;;;;18.50;3.25;;;;;;;21.06;63.98;94185.50;5104915;28;20253;-70
2023/10/26 08:31:36;;;;;;;12.18;4.15;;;;;;;20.97;62.56;94168.25;5103038;28;20225;-68
2023/10/26 08:34:03;;;;;;;5.57;2.80;;;;;;;20.87;62.92;94173.41;5102323;28;20201;-71
2023/10/26 08:36:30;;;;;;;10.38;3.33;;;;;;;20.95;62.58;94172.75;5103703;28;20208;-68
2023/10/26 08:38:56;;;;;;;13.52;3.35;;;;;;;21.25;62.13;94170.06;5104660;28;20215;-69
2023/10/26 08:41:23;;;;;;;11.07;4.07;;;;;;;21.42;61.74;94171.13;5102716;28;20658;-70
2023/10/26 08:43:50;;;;;;;14.52;4.13;;;;;;;21.43;61.85;94175.34;5103236;28;20212;-68
2023/10/26 08:46:18;;;;;;;20.83;3.28;;;;;;;21.48;61.39;94172.34;5102194;28;20197;-65
2023/10/26 08:48:49;;;;;;;16.20;3.97;;;;;;;21.42;60.98;94171.13;5103528;28;20205;-69
2023/10/26 08:51:16;;;;;;;10.52;3.42;;;;;;;21.57;60.45;94161.97;5103678;28;20722;-68
2023/10/26 08:53:43;;;;;;;9.25;2.95;;;;;;;21.63;59.58;94166.59;5102564;28;20261;-67
2023/10/26 08:56:11;;;;;;;12.50;4.50;;;;;;;21.84;59.27;94168.16;5101498;28;20193;-65
2023/10/26 08:58:38;;;;;;;12.52;3.10;;;;;;;21.96;58.76;94160.09;5103336;28;20197;-68
2023/10/26 09:01:06;;;;;;;12.93;3.63;;;;;;;22.03;59.15;94152.59;5102181;28;20706;-66
2023/10/26 09:03:34;;;;;;;13.52;2.92;;;;;;;22.38;56.93;94147.53;5102939;28;20209;-67
2023/10/26 09:06:02;;;;;;;10.65;3.20;;;;;;;22.96;56.07;94142.00;5102061;28;20289;-67
2023/10/26 09:08:30;;;;;;;9.68;3.33;;;;;;;23.53;54.38;94142.47;5101615;28;20201;-64
2023/10/26 09:10:57;;;;;;;16.50;4.43;;;;;;;23.70;52.74;94094.13;5103353;28;20608;-66
2023/10/26 09:13:25;;;;;;;12.27;2.80;;;;;;;24.15;51.87;94124.97;5098879;28;20203;-65
2023/10/26 09:15:55;;;;;;;11.82;5.55;;;;;;;24.44;51.78;94108.22;5103342;28;20200;-66
2023/10/26 09:18:22;;;;;;;12.23;3.97;;;;;;;24.73;50.23;94125.03;5102922;28;20205;-65
2023/10/26 09:21:04;;;;;;;10.25;3.17;;;;;;;24.75;49.19;94117.84;5100486;28;20749;-64
2023/10/26 09:23:32;;;;;;;13.65;2.92;;;;;;;24.71;49.13;94126.16;5100498;28;20205;-65
2023/10/26 09:25:59;;;;;;;8.40;3.35;;;;;;;24.53;50.25;94118.47;5103511;28;20193;-64
2023/10/26 09:28:26;;;;;;;11.43;3.15;;;;;;;24.16;50.20;94126.59;5102560;28;20201;-64
2023/10/26 09:30:59;;;;;;;10.88;2.70;;;;;;;24.01;49.95;94128.13;5103979;28;20217;-66
2023/10/26 09:33:27;;;;;;;6.03;2.30;;;;;;;23.83;50.66;94114.44;5104283;28;20204;-64
2023/10/26 09:35:54;;;;;;;11.70;3.63;;;;;;;23.71;52.60;94122.50;5104509;28;20217;-64
2023/10/26 09:38:36;;;;;;;8.68;3.05;;;;;;;24.15;50.82;94114.59;5103783;28;20246;-63
2023/10/26 09:41:06;;;;;;;10.82;3.22;;;;;;;24.35;50.45;94115.16;5105535;28;20254;-64
2023/10/26 09:43:33;;;;;;;7.57;2.78;;;;;;;24.44;48.24;94108.22;5108327;28;20204;-65
2023/10/26 09:46:00;;;;;;;13.73;3.65;;;;;;;24.41;48.86;94114.56;5107250;28;20790;-65
2023/10/26 09:48:28;;;;;;;6.18;3.35;;;;;;;24.53;47.66;94107.25;5103487;28;20197;-63
2023/10/26 09:51:00;;;;;;;8.90;3.33;;;;;;;24.53;46.78;94118.47;5104219;28;20277;-67
2023/10/26 09:53:31;;;;;;;7.30;2.25;;;;;;;24.51;46.89;94119.59;5105499;28;20586;-66
2023/10/26 09:56:02;;;;;;;9.40;2.45;;;;;;;24.77;46.88;94115.09;5105984;28;20193;-65
2023/10/26 09:58:34;;;;;;;12.57;3.13;;;;;;;25.02;47.23;94100.38;5104854;28;20228;-65
2023/10/26 10:01:02;;;;;;;8.52;3.05;;;;;;;25.16;46.46;94085.94;5106232;28;20236;-65
2023/10/26 10:03:43;;;;;;;4.63;2.25;;;;;;;25.49;46.26;94094.53;5106245;28;20196;-65
2023/10/26 10:06:43;;;;;;;12.23;2.90;;;;;;;25.68;45.57;94100.19;5105725;28;20201;-69
2023/10/26 10:09:11;;;;;;;8.68;2.40;;;;;;;25.38;44.93;94075.66;5108004;28;20689;-65
2023/10/26 10:11:39;;;;;;;8.52;2.03;;;;;;;25.65;44.98;94086.69;5106211;28;20589;-65
2023/10/26 10:14:06;;;;;;;8.82;2.28;;;;;;;25.73;44.57;94071.09;5107402;28;20236;-65
2023/10/26 10:16:50;;;;;;;8.23;2.60;;;;;;;25.87;44.43;94072.97;5105931;28;20229;-65
2023/10/26 10:19:18;;;;;;;7.32;2.03;;;;;;;25.69;44.06;94075.81;5106889;28;20197;-65
2023/10/26 10:21:44;;;;;;;9.07;2.60;;;;;;;25.49;44.50;94069.28;5106463;28;20255;-64
2023/10/26 10:24:11;;;;;;;7.97;2.42;;;;;;;25.47;45.25;94066.06;5107136;28;20291;-65
2023/10/26 10:27:10;;;;;;;8.52;2.05;;;;;;;25.42;44.76;94050.94;5106902;28;20678;-65
2023/10/26 10:29:37;;;;;;;8.35;2.75;;;;;;;25.37;45.57;94057.63;5105242;28;20193;-64
2023/10/26 10:32:04;;;;;;;9.25;1.83;;;;;;;25.42;44.42;94047.53;5105989;28;20220;-66
2023/10/26 10:34:42;;;;;;;16.77;2.15;;;;;;;25.58;45.26;94051.88;5105879;28;20232;-64
2023/10/26 10:37:13;;;;;;;10.77;2.67;;;;;;;25.68;45.42;94040.34;5106721;28;20193;-65
2023/10/26 10:40:02;;;;;;;7.97;2.20;;;;;;;25.79;44.06;94033.94;5106699;28;20201;-64
2023/10/26 10:42:33;;;;;;;10.35;2.33;;;;;;;25.79;43.92;94036.56;5103952;28;20217;-64
2023/10/26 10:45:01;;;;;;;8.77;2.08;;;;;;;25.74;44.66;94037.06;5104928;28;20225;-65
2023/10/26 10:47:28;;;;;;;8.98;2.15;;;;;;;25.69;44.99;94030.75;5105548;28;20201;-66
2023/10/26 10:50:20;;;;;;;12.48;2.03;;;;;;;25.81;45.12;94018.16;5104723;28;20207;-65
2023/10/26 10:52:47;;;;;;;12.75;2.78;;;;;;;25.60;46.17;94024.72;5106216;28;20234;-64
2023/10/26 10:55:20;;;;;;;10.43;2.03;;;;;;;25.69;46.58;94007.34;5106022;28;20231;-66
2023/10/26 10:57:58;;;;;;;12.35;2.60;;;;;;;25.87;46.32;94010.50;5104299;28;20762;-68
2023/10/26 11:00:26;;;;;;;7.93;2.28;;;;;;;26.00;46.22;94012.56;5102043;28;20689;-65
2023/10/26 11:02:56;;;;;;;12.35;3.13;;;;;;;26.22;45.84;94004.00;5106826;28;20261;-65
2023/10/26 11:05:35;;;;;;;7.15;2.00;;;;;;;26.23;44.95;93992.56;5106115;28;20690;-64
2023/10/26 11:08:01;;;;;;;6.90;2.13;;;;;;;26.28;44.82;93997.25;5102356;28;20533;-65
2023/10/26 11:10:28;;;;;;;3.58;2.28;;;;;;;26.10;44.96;94000.13;5104010;28;20200;-65
2023/10/26 11:12:55;;;;;;;4.40;1.90;;;;;;;25.72;45.27;94000.00;5105073;28;20624;-64
2023/10/26 11:15:31;;;;;;;10.20;2.65;;;;;;;25.36;47.00;93996.19;5104927;28;20686;-65
2023/10/26 11:17:58;;;;;;;6.07;2.63;;;;;;;25.03;47.72;93987.63;5103298;28;20682;-66
2023/10/26 11:20:34;;;;;;;7.63;2.58;;;;;;;24.71;48.57;93972.88;5104929;28;20212;-65
2023/10/26 11:23:01;;;;;;;8.18;2.40;;;;;;;24.66;49.11;93998.53;5102740;28;20378;-65
2023/10/26 11:25:28;;;;;;;15.40;2.45;;;;;;;24.51;49.33;93994.91;5106326;28;20631;-67
2023/10/26 11:27:55;;;;;;;9.65;2.25;;;;;;;24.57;50.19;94002.06;5105120;28;20222;-64